This is the latest recevied weather packets stored in our database for station/object SQ9MHX-13. If no packets are shown the sender has not sent any weather packets the latest 10 day(s).
| Time | Temp. | Humidity | Pressure | Rain* | Wind** | Luminosity | Snow |
|---|---|---|---|---|---|---|---|
| 1777863888 | 7.22° C | 77% | 976.8 hPa | - | 0 m/s | - | - |
| 1777863589 | 7.22° C | 74% | 975.5 hPa | - | 0 m/s | - | - |
| 1777863291 | 8.89° C | 70% | 974.8 hPa | - | 0 m/s | - | - |
| 1777862993 | 8.89° C | 69% | 974.8 hPa | - | 0 m/s | - | - |
| 1777862695 | 8.89° C | 71% | 975.3 hPa | - | 0 m/s | - | - |
| 1777862396 | 8.89° C | 70% | 975.5 hPa | - | 0 m/s | - | - |
| 1777862098 | 7.78° C | 74% | 976.8 hPa | - | 0 m/s | - | - |
| 1777861800 | 7.22° C | 77% | 977.5 hPa | - | 0 m/s | - | - |
| 1777861502 | 7.22° C | 76% | 977.1 hPa | - | 0 m/s | - | - |
| 1777861203 | 7.22° C | 72% | 976.2 hPa | - | 0 m/s | - | - |
| 1777860905 | 7.22° C | 71% | 976.9 hPa | - | 0 m/s | - | - |
| 1777860607 | 7.22° C | 74% | 977.4 hPa | - | 0 m/s | - | - |
| 1777860309 | 7.22° C | 74% | 976.6 hPa | - | 0 m/s | - | - |
| 1777860010 | 7.78° C | 73% | 976.5 hPa | - | 0 m/s | - | - |
| 1777859712 | 7.22° C | 80% | 977.4 hPa | - | 0 m/s | - | - |
| 1777859414 | 7.22° C | 79% | 977.5 hPa | - | 0 m/s | - | - |
| 1777858817 | 7.78° C | 70% | 975.5 hPa | - | 0 m/s | - | - |
| 1777858519 | 7.78° C | 71% | 975.2 hPa | - | 0 m/s | - | - |
| 1777858221 | 7.78° C | 71% | 974.6 hPa | - | 0 m/s | - | - |
| 1777857922 | 8.89° C | 67% | 972.1 hPa | - | 0 m/s | - | - |
| 1777857624 | 11.11° C | 57% | 971.5 hPa | - | 0 m/s | - | - |
| 1777857326 | 11.11° C | 57% | 971.8 hPa | - | 0 m/s | - | - |
| 1777857027 | 10° C | 59% | 972.1 hPa | - | 0 m/s | - | - |
| 1777856729 | 10° C | 60% | 972.4 hPa | - | 0 m/s | - | - |
| 1777856430 | 10° C | 61% | 973.1 hPa | - | 0 m/s | - | - |
* Rain since midnight (hover to see other rain measurements)
** Current wind speed in m/s (hover to see current wind gust speed)